createdAt,value
2022-10-17T00:01:07.315Z,12.60
2022-10-17T00:03:36.963Z,12.60
2022-10-17T00:06:08.080Z,12.60
2022-10-17T00:08:37.961Z,12.60
2022-10-17T00:11:08.330Z,12.60
2022-10-17T00:13:36.979Z,12.60
2022-10-17T00:16:05.333Z,12.60
2022-10-17T00:18:33.464Z,12.60
2022-10-17T00:21:01.540Z,12.50
2022-10-17T00:23:30.524Z,12.50
2022-10-17T00:26:06.370Z,12.60
2022-10-17T00:28:34.500Z,12.60
2022-10-17T00:31:05.156Z,12.70
2022-10-17T00:33:34.978Z,12.80
2022-10-17T00:36:07.791Z,12.70
2022-10-17T00:38:35.992Z,12.70
2022-10-17T00:41:05.933Z,12.70
2022-10-17T00:43:52.785Z,12.60
2022-10-17T00:46:21.619Z,12.50
2022-10-17T00:48:50.811Z,12.50
2022-10-17T00:51:21.498Z,12.40
2022-10-17T00:53:51.785Z,12.50
2022-10-17T00:56:22.371Z,12.60
2022-10-17T00:58:50.520Z,12.50
2022-10-17T01:01:18.836Z,12.60
2022-10-17T01:03:50.064Z,12.70
2022-10-17T01:06:20.450Z,12.60
2022-10-17T01:08:48.550Z,12.50
2022-10-17T01:11:27.467Z,12.40
2022-10-17T01:14:03.718Z,12.40
2022-10-17T01:16:42.713Z,12.30
2022-10-17T01:19:38.452Z,12.40
2022-10-17T01:22:11.878Z,12.40
2022-10-17T01:24:56.955Z,12.40
2022-10-17T01:27:57.794Z,12.40
2022-10-17T01:31:01.600Z,12.30
2022-10-17T01:33:42.111Z,12.30
2022-10-17T01:36:13.859Z,12.20
2022-10-17T01:38:48.515Z,12.20
2022-10-17T01:41:25.457Z,12.10
2022-10-17T01:43:59.421Z,12.10
2022-10-17T01:46:32.900Z,12.00
2022-10-17T01:49:03.838Z,12.10
2022-10-17T01:51:36.962Z,12.10
2022-10-17T01:54:10.679Z,12.30
2022-10-17T01:56:41.227Z,12.20
2022-10-17T01:59:14.357Z,12.30
2022-10-17T02:01:44.777Z,12.40
2022-10-17T02:04:14.228Z,12.30
2022-10-17T02:06:42.222Z,12.30
2022-10-17T02:09:22.508Z,12.20
2022-10-17T02:12:12.954Z,12.20
2022-10-17T02:14:53.339Z,12.30
2022-10-17T02:17:32.157Z,12.30
2022-10-17T02:20:10.455Z,12.30
2022-10-17T02:22:42.990Z,12.30
2022-10-17T02:25:16.184Z,12.10
2022-10-17T02:27:49.936Z,12.00
2022-10-17T02:30:24.970Z,12.00
2022-10-17T02:32:59.026Z,12.00
2022-10-17T02:35:32.362Z,12.30
2022-10-17T02:38:01.766Z,12.30
2022-10-17T02:40:32.112Z,12.10
2022-10-17T02:43:01.073Z,12.30
2022-10-17T02:45:35.773Z,12.20
2022-10-17T02:48:06.976Z,12.20
2022-10-17T02:50:44.165Z,12.10
2022-10-17T02:53:16.269Z,12.10
2022-10-17T02:55:51.650Z,12.00
2022-10-17T02:58:22.705Z,12.00
2022-10-17T03:00:52.443Z,12.00
2022-10-17T03:03:22.984Z,12.00
2022-10-17T03:05:53.169Z,12.00
2022-10-17T03:08:21.481Z,11.90
2022-10-17T03:10:49.747Z,11.90
2022-10-17T03:13:18.247Z,11.90
2022-10-17T03:15:46.410Z,11.80
2022-10-17T03:18:14.550Z,11.80
2022-10-17T03:20:42.547Z,11.80
2022-10-17T03:23:11.925Z,11.70
2022-10-17T03:25:40.011Z,11.70
2022-10-17T03:28:08.274Z,11.60
2022-10-17T03:30:39.211Z,11.70
2022-10-17T03:33:07.299Z,11.80
2022-10-17T03:35:35.369Z,11.90
2022-10-17T03:38:03.410Z,11.90
2022-10-17T03:40:32.797Z,11.80
2022-10-17T03:43:00.847Z,11.80
2022-10-17T03:45:29.356Z,11.70
2022-10-17T03:47:57.412Z,11.80
2022-10-17T03:50:25.462Z,11.70
2022-10-17T03:52:53.515Z,11.70
2022-10-17T03:55:21.528Z,11.90
2022-10-17T03:57:50.829Z,11.80
2022-10-17T04:00:18.884Z,11.80
2022-10-17T04:02:46.905Z,11.60
2022-10-17T04:05:15.042Z,11.60
2022-10-17T04:07:43.042Z,11.60
2022-10-17T04:10:11.462Z,11.50
2022-10-17T04:12:39.490Z,11.60
2022-10-17T04:15:10.418Z,11.70
2022-10-17T04:17:38.517Z,11.90
2022-10-17T04:20:07.483Z,12.00
2022-10-17T04:22:35.782Z,12.10
2022-10-17T04:25:03.784Z,11.90
2022-10-17T04:27:31.828Z,11.90
2022-10-17T04:29:59.875Z,11.90
2022-10-17T04:32:29.512Z,12.00
2022-10-17T04:34:57.689Z,12.00
2022-10-17T04:37:25.836Z,11.90
2022-10-17T04:39:53.867Z,11.90
2022-10-17T04:42:22.016Z,11.90
2022-10-17T04:44:50.095Z,11.80
2022-10-17T04:47:18.125Z,11.80
2022-10-17T04:49:47.527Z,11.80
2022-10-17T04:52:15.509Z,11.70
2022-10-17T04:54:43.610Z,11.80
2022-10-17T04:57:11.653Z,11.80
2022-10-17T04:59:39.749Z,11.80
2022-10-17T05:02:08.023Z,11.80
2022-10-17T05:04:36.124Z,11.80
2022-10-17T05:07:05.571Z,11.80
2022-10-17T05:09:33.587Z,11.80
2022-10-17T05:12:03.422Z,11.80
2022-10-17T05:14:33.524Z,11.90
2022-10-17T05:17:01.517Z,11.80
2022-10-17T05:19:29.521Z,11.80
2022-10-17T05:21:57.536Z,11.90
2022-10-17T05:24:26.899Z,11.90
2022-10-17T05:26:54.991Z,11.90
2022-10-17T05:29:23.540Z,11.80
2022-10-17T05:31:51.632Z,11.90
2022-10-17T05:34:19.683Z,11.80
2022-10-17T05:36:47.734Z,11.90
2022-10-17T05:39:19.564Z,11.90
2022-10-17T05:41:48.992Z,12.00
2022-10-17T05:44:16.972Z,12.00
2022-10-17T05:46:45.118Z,12.00
2022-10-17T05:49:19.596Z,11.90
2022-10-17T05:51:53.526Z,11.90
2022-10-17T05:54:21.661Z,11.90
2022-10-17T05:56:54.932Z,11.90
2022-10-17T05:59:23.325Z,11.90
2022-10-17T06:01:51.519Z,11.90
2022-10-17T06:04:19.665Z,12.00
2022-10-17T06:06:48.169Z,12.00
2022-10-17T06:09:16.245Z,12.00
2022-10-17T06:11:44.254Z,12.10
2022-10-17T06:14:13.620Z,12.10
2022-10-17T06:16:41.657Z,12.10
2022-10-17T06:19:11.457Z,12.10
2022-10-17T06:21:39.638Z,12.10
2022-10-17T06:24:08.399Z,12.20
2022-10-17T06:26:36.369Z,12.10
2022-10-17T06:29:04.610Z,12.20
2022-10-17T06:31:34.105Z,12.20
2022-10-17T06:34:02.134Z,12.30
2022-10-17T06:36:30.229Z,12.40
2022-10-17T06:38:58.263Z,12.40
2022-10-17T06:41:26.378Z,12.40
2022-10-17T06:43:54.387Z,12.40
2022-10-17T06:46:22.450Z,12.50
2022-10-17T06:48:51.921Z,12.50
2022-10-17T06:51:19.980Z,12.60
2022-10-17T06:53:48.184Z,12.70
2022-10-17T06:56:16.240Z,12.90
2022-10-17T06:58:44.332Z,13.00
2022-10-17T07:01:14.096Z,13.10
2022-10-17T07:03:43.664Z,13.10
2022-10-17T07:06:13.238Z,13.20
2022-10-17T07:08:44.605Z,13.30
2022-10-17T07:11:14.560Z,13.60
2022-10-17T07:13:42.960Z,13.80
2022-10-17T07:16:11.935Z,14.00
2022-10-17T07:18:40.919Z,14.30
2022-10-17T07:21:09.618Z,14.60
2022-10-17T07:23:39.872Z,14.80
2022-10-17T07:26:09.382Z,14.90
2022-10-17T07:28:39.402Z,15.10
2022-10-17T07:31:08.970Z,15.30
2022-10-17T07:33:37.280Z,15.50
2022-10-17T07:36:06.784Z,15.70
2022-10-17T07:38:35.745Z,15.90
2022-10-17T07:41:08.569Z,16.10
2022-10-17T07:43:37.237Z,16.30
2022-10-17T07:46:06.675Z,16.50
2022-10-17T07:48:34.911Z,16.70
2022-10-17T07:51:04.536Z,16.90
2022-10-17T07:53:32.843Z,17.10
2022-10-17T07:56:00.856Z,17.30
2022-10-17T07:58:31.415Z,17.50
2022-10-17T08:03:35.286Z,17.80
2022-10-17T08:06:05.309Z,17.90
2022-10-17T08:08:33.544Z,18.00
2022-10-17T08:11:04.056Z,18.10
2022-10-17T08:13:33.423Z,18.30
2022-10-17T08:16:02.548Z,18.40
2022-10-17T08:18:30.770Z,18.60
2022-10-17T08:21:01.216Z,18.80
2022-10-17T08:23:29.643Z,18.90
2022-10-17T08:26:00.383Z,19.10
2022-10-17T08:28:28.482Z,19.30
2022-10-17T08:31:05.092Z,19.40
2022-10-17T08:33:33.464Z,19.50
2022-10-17T08:36:02.097Z,19.50
2022-10-17T08:38:35.077Z,19.60
2022-10-17T08:41:07.877Z,19.60
2022-10-17T08:43:49.660Z,19.60
2022-10-17T08:46:20.845Z,19.50
2022-10-17T08:48:50.897Z,19.50
2022-10-17T08:51:22.800Z,19.50
2022-10-17T08:53:56.791Z,19.50
2022-10-17T08:59:18.757Z,19.70
2022-10-17T09:01:52.664Z,19.90
2022-10-17T09:04:48.663Z,20.00
2022-10-17T09:07:24.627Z,20.00
2022-10-17T09:10:03.772Z,20.10
2022-10-17T09:12:39.636Z,20.20
2022-10-17T09:15:29.188Z,20.30
2022-10-17T09:18:03.435Z,20.50
2022-10-17T09:20:37.508Z,20.60
2022-10-17T09:23:16.654Z,20.70
2022-10-17T09:25:46.945Z,20.80
2022-10-17T09:28:19.375Z,20.80
2022-10-17T09:30:48.520Z,20.90
2022-10-17T09:33:35.149Z,21.00
2022-10-17T09:36:14.251Z,21.20
2022-10-17T09:38:44.746Z,21.40
2022-10-17T09:41:43.624Z,21.50
2022-10-17T09:44:21.767Z,21.60
2022-10-17T09:47:20.027Z,21.60
2022-10-17T09:49:50.752Z,21.70
2022-10-17T09:52:22.291Z,21.70
2022-10-17T09:54:52.511Z,21.70
2022-10-17T09:57:22.218Z,21.80
2022-10-17T09:59:59.158Z,21.90
2022-10-17T10:02:29.011Z,22.10
2022-10-17T10:05:06.099Z,22.10
2022-10-17T10:07:36.819Z,22.40
2022-10-17T10:10:07.744Z,22.60
2022-10-17T10:12:37.411Z,23.10
2022-10-17T10:15:33.834Z,23.50
2022-10-17T10:18:01.980Z,23.90
2022-10-17T10:20:34.958Z,24.00
2022-10-17T10:23:08.135Z,23.90
2022-10-17T10:25:37.156Z,23.80
2022-10-17T10:28:11.796Z,23.90
2022-10-17T10:30:40.094Z,23.90
2022-10-17T10:33:12.777Z,23.80
2022-10-17T10:35:42.175Z,23.80
2022-10-17T10:38:15.180Z,23.90
2022-10-17T10:40:48.746Z,24.00
2022-10-17T10:43:25.137Z,24.00
2022-10-17T10:45:54.346Z,24.30
2022-10-17T10:48:24.883Z,24.60
2022-10-17T10:50:58.006Z,25.10
2022-10-17T10:53:45.331Z,25.70
2022-10-17T10:56:19.476Z,26.10
2022-10-17T10:58:55.907Z,26.40
2022-10-17T11:01:31.951Z,26.00
2022-10-17T11:04:18.529Z,25.80
2022-10-17T11:06:51.281Z,25.50
2022-10-17T11:09:34.053Z,24.90
2022-10-17T11:12:10.843Z,24.80
2022-10-17T11:14:44.490Z,25.10
2022-10-17T11:17:21.252Z,25.40
2022-10-17T11:20:00.239Z,25.60
2022-10-17T11:22:32.862Z,25.70
2022-10-17T11:25:05.454Z,26.40
2022-10-17T11:27:35.542Z,26.90
2022-10-17T11:30:04.695Z,27.40
2022-10-17T11:32:38.695Z,27.60
2022-10-17T11:35:14.572Z,27.80
2022-10-17T11:37:49.103Z,27.20
2022-10-17T11:40:24.406Z,27.30
2022-10-17T11:42:58.009Z,27.60
2022-10-17T11:45:29.536Z,27.60
2022-10-17T11:48:02.886Z,27.00
2022-10-17T11:53:26.047Z,27.40
2022-10-17T11:55:56.315Z,26.90
2022-10-17T11:58:36.695Z,27.80
2022-10-17T12:01:31.873Z,28.70
2022-10-17T12:04:19.446Z,29.30
2022-10-17T12:07:03.119Z,29.50
2022-10-17T12:09:40.807Z,29.20
2022-10-17T12:12:09.233Z,28.50
2022-10-17T12:14:40.551Z,28.30
2022-10-17T12:17:30.462Z,28.40
2022-10-17T12:20:27.366Z,28.20
2022-10-17T12:22:57.602Z,27.80
2022-10-17T12:25:30.009Z,28.30
2022-10-17T12:28:13.382Z,28.80
2022-10-17T12:30:52.592Z,29.50
2022-10-17T12:33:24.912Z,29.30
2022-10-17T12:36:13.449Z,29.30
2022-10-17T12:38:41.537Z,29.50
2022-10-17T12:41:11.614Z,29.70
2022-10-17T12:43:57.636Z,29.70
2022-10-17T12:46:47.015Z,29.10
2022-10-17T12:49:25.134Z,28.40
2022-10-17T12:52:27.411Z,27.60
2022-10-17T12:55:13.939Z,27.10
2022-10-17T12:57:51.432Z,27.30
2022-10-17T13:00:28.669Z,27.10
2022-10-17T13:03:05.612Z,27.10
2022-10-17T13:05:37.031Z,27.30
2022-10-17T13:08:07.972Z,27.20
2022-10-17T13:10:43.084Z,27.10
2022-10-17T13:13:18.088Z,27.20
2022-10-17T13:15:50.346Z,26.80
2022-10-17T13:18:23.663Z,26.40
2022-10-17T13:21:00.106Z,26.10
2022-10-17T13:23:31.977Z,25.80
2022-10-17T13:26:08.240Z,25.50
2022-10-17T13:28:39.523Z,25.20
2022-10-17T13:31:08.642Z,25.10
2022-10-17T13:33:39.208Z,25.10
2022-10-17T13:36:15.686Z,25.10
2022-10-17T13:38:44.289Z,25.10
2022-10-17T13:41:35.802Z,25.00
2022-10-17T13:44:12.600Z,24.80
2022-10-17T13:46:41.277Z,24.70
2022-10-17T13:49:17.807Z,24.70
2022-10-17T13:51:48.082Z,24.60
2022-10-17T13:54:21.454Z,24.60
2022-10-17T13:56:57.356Z,24.50
2022-10-17T13:59:29.442Z,24.50
2022-10-17T14:01:57.722Z,24.50
2022-10-17T14:04:25.725Z,24.50
2022-10-17T14:06:53.868Z,24.40
2022-10-17T14:09:24.544Z,24.40
2022-10-17T14:12:02.073Z,24.40
2022-10-17T14:14:46.049Z,24.50
2022-10-17T14:17:25.004Z,24.40
2022-10-17T14:20:16.084Z,24.40
2022-10-17T14:22:50.423Z,24.40
2022-10-17T14:25:30.756Z,24.40
2022-10-17T14:28:07.977Z,24.40
2022-10-17T14:33:30.388Z,24.40
2022-10-17T14:36:00.852Z,24.30
2022-10-17T14:38:30.437Z,24.30
2022-10-17T14:41:23.599Z,24.20
2022-10-17T14:43:55.550Z,24.20
2022-10-17T14:46:25.487Z,24.10
2022-10-17T14:48:56.293Z,24.00
2022-10-17T14:51:24.471Z,23.90
2022-10-17T14:54:05.790Z,23.90
2022-10-17T14:56:42.986Z,23.80
2022-10-17T14:59:13.813Z,23.80
2022-10-17T15:01:47.544Z,23.70
2022-10-17T15:04:15.649Z,23.70
2022-10-17T15:06:44.032Z,23.70
2022-10-17T15:09:12.738Z,23.60
2022-10-17T15:11:40.760Z,23.50
2022-10-17T15:14:08.791Z,23.40
2022-10-17T15:16:39.332Z,23.40
2022-10-17T15:19:08.703Z,23.40
2022-10-17T15:21:41.822Z,23.30
2022-10-17T15:24:11.369Z,23.20
2022-10-17T15:26:39.468Z,23.20
2022-10-17T15:29:07.679Z,23.10
2022-10-17T15:31:35.922Z,23.10
2022-10-17T15:34:03.925Z,23.00
2022-10-17T15:36:38.009Z,22.90
2022-10-17T15:39:06.276Z,22.80
2022-10-17T15:41:34.757Z,22.80
2022-10-17T15:44:02.845Z,22.70
2022-10-17T15:46:33.789Z,22.60
2022-10-17T15:49:04.149Z,22.50
2022-10-17T15:51:33.552Z,22.40
2022-10-17T15:54:01.911Z,22.40
2022-10-17T15:56:32.100Z,22.30
2022-10-17T15:59:00.170Z,22.30
2022-10-17T16:01:30.691Z,22.30
2022-10-17T16:03:59.402Z,22.20
2022-10-17T16:06:27.622Z,22.10
2022-10-17T16:08:57.041Z,21.90
2022-10-17T16:11:31.085Z,21.80
2022-10-17T16:14:01.524Z,21.60
2022-10-17T16:16:29.756Z,21.50
2022-10-17T16:18:58.253Z,21.40
2022-10-17T16:24:04.733Z,21.00
2022-10-17T16:26:33.420Z,20.90
2022-10-17T16:29:03.075Z,20.70
2022-10-17T16:31:33.257Z,20.60
2022-10-17T16:34:02.953Z,20.50
2022-10-17T16:36:31.134Z,20.50
2022-10-17T16:38:59.456Z,20.40
2022-10-17T16:41:30.232Z,20.20
2022-10-17T16:43:59.881Z,20.10
2022-10-17T16:46:30.373Z,20.10
2022-10-17T16:48:58.803Z,20.10
2022-10-17T16:51:29.123Z,20.00
2022-10-17T16:54:00.139Z,19.90
2022-10-17T16:56:32.690Z,19.80
2022-10-17T16:59:01.815Z,19.70
2022-10-17T17:01:30.356Z,19.60
2022-10-17T17:03:58.563Z,19.40
2022-10-17T17:06:28.140Z,19.30
2022-10-17T17:08:56.956Z,19.20
2022-10-17T17:11:27.296Z,19.10
2022-10-17T17:13:58.788Z,18.90
2022-10-17T17:16:28.251Z,18.80
2022-10-17T17:18:57.794Z,18.80
2022-10-17T17:21:26.992Z,18.60
2022-10-17T17:23:57.217Z,18.50
2022-10-17T17:26:26.204Z,18.30
2022-10-17T17:28:54.566Z,18.30
2022-10-17T17:31:26.877Z,18.40
2022-10-17T17:36:30.534Z,18.20
2022-10-17T17:39:00.370Z,18.00
2022-10-17T17:41:28.495Z,18.00
2022-10-17T17:43:57.427Z,18.00
2022-10-17T17:46:27.013Z,17.90
2022-10-17T17:48:56.326Z,17.80
2022-10-17T17:51:29.308Z,17.60
2022-10-17T17:53:58.494Z,17.60
2022-10-17T17:56:28.032Z,17.50
2022-10-17T17:58:57.821Z,17.50
2022-10-17T18:01:29.173Z,17.60
2022-10-17T18:03:59.761Z,17.40
2022-10-17T18:06:28.644Z,17.50
2022-10-17T18:08:58.452Z,17.40
2022-10-17T18:11:27.144Z,17.40
2022-10-17T18:13:55.868Z,17.30
2022-10-17T18:16:24.330Z,17.30
2022-10-17T18:18:53.757Z,17.20
2022-10-17T18:21:22.216Z,17.20
2022-10-17T18:23:51.836Z,17.20
2022-10-17T18:26:20.408Z,17.20
2022-10-17T18:28:49.567Z,17.00
2022-10-17T18:31:23.970Z,17.00
2022-10-17T18:33:54.611Z,16.90
2022-10-17T18:36:23.908Z,16.80
2022-10-17T18:38:53.203Z,16.70
2022-10-17T18:41:22.762Z,16.60
2022-10-17T18:43:52.131Z,16.50
2022-10-17T18:46:22.080Z,16.60
2022-10-17T18:48:51.273Z,16.50
2022-10-17T18:51:22.212Z,16.50
2022-10-17T18:53:51.558Z,16.50
2022-10-17T18:56:20.725Z,16.40
2022-10-17T18:58:49.006Z,16.40
2022-10-17T19:01:19.189Z,16.40
2022-10-17T19:03:48.996Z,16.30
2022-10-17T19:06:18.865Z,16.30
2022-10-17T19:08:49.268Z,16.30
2022-10-17T19:11:19.321Z,16.30
2022-10-17T19:13:48.432Z,16.20
2022-10-17T19:16:18.207Z,16.00
2022-10-17T19:18:51.128Z,16.00
2022-10-17T19:21:21.974Z,16.10
2022-10-17T19:23:53.332Z,16.00
2022-10-17T19:26:22.148Z,15.90
2022-10-17T19:28:52.248Z,15.80
2022-10-17T19:31:26.246Z,15.70
2022-10-17T19:33:55.584Z,15.60
2022-10-17T19:36:28.817Z,15.60
2022-10-17T19:39:03.070Z,15.70
2022-10-17T19:41:31.820Z,15.70
2022-10-17T19:44:01.190Z,15.70
2022-10-17T19:46:31.264Z,15.80
2022-10-17T19:48:59.715Z,15.80
2022-10-17T19:51:29.016Z,15.60
2022-10-17T19:54:00.283Z,15.50
2022-10-17T19:56:32.375Z,15.60
2022-10-17T19:59:00.524Z,15.60
2022-10-17T20:01:30.447Z,15.60
2022-10-17T20:03:58.543Z,15.60
2022-10-17T20:06:27.274Z,15.40
2022-10-17T20:08:55.777Z,15.30
2022-10-17T20:11:25.579Z,15.20
2022-10-17T20:13:55.949Z,15.20
2022-10-17T20:16:25.650Z,15.10
2022-10-17T20:18:55.453Z,15.10
2022-10-17T20:21:27.153Z,15.10
2022-10-17T20:23:56.376Z,15.10
2022-10-17T20:26:37.561Z,15.00
2022-10-17T20:29:11.043Z,15.00
2022-10-17T20:31:40.370Z,15.00
2022-10-17T20:34:08.767Z,14.90
2022-10-17T20:36:37.558Z,14.90
2022-10-17T20:39:09.521Z,15.00
2022-10-17T20:41:37.646Z,15.10
2022-10-17T20:44:07.893Z,15.10
2022-10-17T20:46:38.468Z,15.10
2022-10-17T20:49:12.158Z,15.00
2022-10-17T20:51:40.212Z,14.90
2022-10-17T20:54:08.287Z,14.90
2022-10-17T20:56:37.196Z,14.90
2022-10-17T20:59:08.999Z,14.90
2022-10-17T21:01:37.447Z,14.80
2022-10-17T21:04:33.172Z,14.80
2022-10-17T21:06:54.222Z,14.70
2022-10-17T21:09:23.202Z,14.60
2022-10-17T21:11:55.099Z,14.50
2022-10-17T21:14:25.837Z,14.50
2022-10-17T21:16:53.918Z,14.40
2022-10-17T21:19:22.735Z,14.40
2022-10-17T21:21:51.413Z,14.50
2022-10-17T21:24:20.825Z,14.60
2022-10-17T21:26:55.350Z,14.50
2022-10-17T21:29:25.672Z,14.40
2022-10-17T21:31:53.708Z,14.40
2022-10-17T21:34:24.577Z,14.40
2022-10-17T21:36:53.052Z,14.40
2022-10-17T21:39:21.875Z,14.40
2022-10-17T21:41:49.990Z,14.30
2022-10-17T21:44:19.303Z,14.20
2022-10-17T21:46:49.291Z,14.20
2022-10-17T21:49:19.500Z,14.10
2022-10-17T21:51:48.431Z,14.10
2022-10-17T21:54:17.168Z,14.00
2022-10-17T21:56:45.401Z,14.10
2022-10-17T21:59:13.559Z,14.10
2022-10-17T22:01:43.458Z,14.10
2022-10-17T22:04:14.461Z,14.00
2022-10-17T22:06:44.313Z,14.20
2022-10-17T22:09:15.665Z,14.20
2022-10-17T22:11:47.941Z,14.20
2022-10-17T22:14:17.618Z,14.20
2022-10-17T22:16:46.748Z,14.30
2022-10-17T22:19:18.557Z,14.20
2022-10-17T22:21:46.855Z,14.20
2022-10-17T22:24:17.053Z,14.20
2022-10-17T22:26:45.796Z,14.10
2022-10-17T22:29:14.363Z,13.90
2022-10-17T22:31:42.348Z,13.90
2022-10-17T22:34:13.220Z,13.80
2022-10-17T22:36:43.412Z,13.80
2022-10-17T22:39:11.871Z,13.80
2022-10-17T22:41:40.011Z,13.70
2022-10-17T22:44:08.256Z,13.80
2022-10-17T22:46:36.428Z,13.80
2022-10-17T22:49:04.473Z,13.80
2022-10-17T22:51:32.529Z,13.80
2022-10-17T22:54:01.904Z,13.80
2022-10-17T22:56:29.950Z,13.70
2022-10-17T22:58:58.030Z,13.70
2022-10-17T23:01:27.148Z,13.70
2022-10-17T23:03:55.351Z,13.80
2022-10-17T23:06:23.498Z,13.90
2022-10-17T23:08:52.189Z,13.90
2022-10-17T23:11:21.833Z,14.00
2022-10-17T23:13:50.165Z,14.00
2022-10-17T23:16:18.506Z,14.00
2022-10-17T23:18:46.568Z,14.00
2022-10-17T23:21:17.160Z,13.90
2022-10-17T23:23:45.127Z,13.90
2022-10-17T23:26:14.718Z,13.90
2022-10-17T23:28:44.645Z,13.90
2022-10-17T23:31:15.279Z,13.90
2022-10-17T23:33:44.906Z,13.90
2022-10-17T23:36:14.173Z,13.90
2022-10-17T23:38:43.357Z,13.80
2022-10-17T23:41:12.059Z,13.80
2022-10-17T23:43:40.214Z,13.80
2022-10-17T23:46:10.445Z,13.90
2022-10-17T23:48:38.857Z,14.10
2022-10-17T23:51:07.518Z,14.10
2022-10-17T23:53:35.991Z,14.00
2022-10-17T23:56:04.290Z,13.90
2022-10-17T23:58:32.652Z,13.80
